Doha, Qatar
Current Conditions -  °F | °C
As of 6:00 PM on Wednesday 22 Oct 2014 (Local Time) from OTBD Reporting Station
Clear Clear  
Wind Chill: 86°   Ceiling: Unl
Heat Index: 87°   Visibility: 6mi
Dew Point: 63°   Wind: 13mph
Humidity: 45%   Direction: 340°NNW
Pressure: 30"   Gusts: NA
Location:  25.3°N, 51.51°E
Report Text: OTBD 221500Z 34011KT CAVOK 30/17 Q1016 NOSIG
Loading
Personal Weather Stations






























Interactive Weather Map
Tropical Storm Tracking
New forecast layout! Learn more

10-Day Weather Forecast

Advertisements
Track Severe Weather on mobile